Time;durP1;ratioP1;P1;durP2;ratioP2;P2;SDS_P1;SDS_P2;PMS_P1;PMS_P2;Temp;Humidity;BMP_temperature;BMP_pressure;BME280_temperature;BME280_humidity;BME280_pressure;Samples;Min_cycle;Max_cycle;Signal;HPM_P1;HPM_P2
2023/07/11 00:01:59;;;;;;;19.67;10.75;;;;;;;29.28;57.04;99976.28;5121127;28;20106;-72
2023/07/11 00:04:24;;;;;;;20.33;10.97;;;;;;;29.23;57.50;99984.84;5120805;28;20058;-72
2023/07/11 00:06:52;;;;;;;16.63;10.80;;;;;;;29.14;57.71;99972.97;5121057;28;20023;-72
2023/07/11 00:09:18;;;;;;;16.63;10.45;;;;;;;29.06;57.82;99973.63;5120892;28;20055;-72
2023/07/11 00:11:43;;;;;;;18.60;10.98;;;;;;;29.02;58.03;99965.88;5102154;28;20032;-72
2023/07/11 00:14:11;;;;;;;17.83;9.97;;;;;;;28.98;58.17;99956.31;5120726;28;20116;-72
2023/07/11 00:16:37;;;;;;;16.23;10.00;;;;;;;28.97;58.22;99957.31;5120806;28;20575;-73
2023/07/11 00:19:03;;;;;;;17.57;10.87;;;;;;;28.94;58.38;99953.88;5120234;28;20140;-73
2023/07/11 00:21:29;;;;;;;18.60;10.43;;;;;;;28.88;58.27;99946.28;5120891;28;20038;-73
2023/07/11 00:24:03;;;;;;;18.13;10.20;;;;;;;28.86;58.58;99958.22;5102254;28;20027;-73
2023/07/11 00:26:29;;;;;;;14.43;10.13;;;;;;;28.81;58.43;99958.63;5120873;28;20277;-73
2023/07/11 00:28:54;;;;;;;15.52;10.60;;;;;;;28.73;58.74;99956.56;5120600;28;20019;-73
2023/07/11 00:31:20;;;;;;;17.30;11.10;;;;;;;28.69;58.82;99949.66;5120560;28;20030;-72
2023/07/11 00:33:46;;;;;;;22.30;11.55;;;;;;;28.69;58.96;99946.94;5120059;28;20491;-73
2023/07/11 00:36:11;;;;;;;16.33;10.05;;;;;;;28.68;58.91;99950.66;5120499;28;20521;-72
2023/07/11 00:38:36;;;;;;;20.00;9.97;;;;;;;28.66;59.11;99949.94;5120337;28;20024;-73
2023/07/11 00:41:03;;;;;;;17.93;10.47;;;;;;;28.64;58.76;99952.78;5120439;28;20031;-72
2023/07/11 00:43:29;;;;;;;16.65;10.77;;;;;;;28.61;59.10;99944.94;5120127;28;20110;-73
2023/07/11 00:46:15;;;;;;;16.90;10.30;;;;;;;28.56;59.39;99941.72;5120168;28;20078;-72
2023/07/11 00:48:54;;;;;;;17.48;10.82;;;;;;;28.57;59.36;99934.47;5120101;28;20042;-72
2023/07/11 00:51:40;;;;;;;18.63;11.00;;;;;;;28.53;60.01;99942.00;5120283;28;20019;-72
2023/07/11 00:54:09;;;;;;;17.77;10.27;;;;;;;28.50;59.48;99934.13;5101535;28;20376;-72
2023/07/11 00:56:38;;;;;;;15.87;10.10;;;;;;;28.47;59.39;99934.41;5119920;28;20036;-73
2023/07/11 00:59:04;;;;;;;18.95;10.25;;;;;;;28.44;59.50;99927.38;5111416;28;20058;-73
2023/07/11 01:01:30;;;;;;;18.58;10.07;;;;;;;28.43;59.32;99928.38;5119764;28;20059;-73
2023/07/11 01:03:56;;;;;;;17.57;10.50;;;;;;;28.40;59.74;99922.38;5119815;28;20020;-73
2023/07/11 01:06:26;;;;;;;16.77;10.27;;;;;;;28.36;59.70;99922.63;5119599;28;20383;-72
2023/07/11 01:08:54;;;;;;;16.02;9.02;;;;;;;28.35;59.75;99915.50;5101281;28;20061;-73
2023/07/11 01:11:22;;;;;;;18.27;9.90;;;;;;;28.33;59.78;99916.63;5119715;28;20024;-72
2023/07/11 01:13:48;;;;;;;15.25;9.85;;;;;;;28.30;59.69;99911.47;5119626;28;20027;-72
2023/07/11 01:16:13;;;;;;;17.50;9.40;;;;;;;28.30;59.70;99914.16;5119252;28;20077;-73
2023/07/11 01:18:39;;;;;;;17.33;9.80;;;;;;;28.27;59.88;99917.97;5119264;28;20020;-73
2023/07/11 01:21:05;;;;;;;18.33;9.93;;;;;;;28.25;59.75;99908.28;5119285;28;20019;-72
2023/07/11 01:23:32;;;;;;;16.80;9.37;;;;;;;28.22;59.96;99914.81;5119476;28;20114;-72
2023/07/11 01:26:02;;;;;;;15.10;8.93;;;;;;;28.17;60.12;99903.53;5119282;28;20495;-72
2023/07/11 01:28:28;;;;;;;17.60;9.48;;;;;;;28.15;60.43;99902.75;5101089;28;20038;-72
2023/07/11 01:30:54;;;;;;;14.95;9.27;;;;;;;28.12;59.96;99900.31;5119431;28;20030;-72
2023/07/11 01:33:20;;;;;;;19.07;9.73;;;;;;;28.08;60.03;99897.00;5119628;28;20123;-72
2023/07/11 01:35:45;;;;;;;16.92;9.30;;;;;;;28.02;60.23;99892.09;5100455;28;20023;-72
2023/07/11 01:38:11;;;;;;;19.63;9.43;;;;;;;27.92;59.99;99892.00;5119328;28;20024;-72
2023/07/11 01:40:36;;;;;;;18.67;10.17;;;;;;;27.82;60.49;99902.75;5119047;28;20031;-72
2023/07/11 01:43:02;;;;;;;16.93;8.67;;;;;;;27.73;60.68;99896.25;5119220;28;20031;-72
2023/07/11 01:45:27;;;;;;;23.97;8.67;;;;;;;27.72;60.60;99894.53;5100508;28;20360;-72
2023/07/11 01:47:53;;;;;;;20.10;8.23;;;;;;;27.72;60.28;99891.81;5100797;28;20118;-72
2023/07/11 01:50:18;;;;;;;15.27;7.45;;;;;;;27.69;59.97;99891.19;5100314;28;20019;-72
2023/07/11 01:52:43;;;;;;;17.57;7.87;;;;;;;27.67;60.09;99887.75;5119051;28;20036;-72
2023/07/11 01:55:10;;;;;;;23.30;7.70;;;;;;;27.63;60.29;99882.63;5118669;28;20019;-72
2023/07/11 01:57:35;;;;;;;16.75;7.75;;;;;;;27.63;60.04;99881.78;5118638;28;20039;-72
2023/07/11 02:00:01;;;;;;;18.47;8.00;;;;;;;27.62;60.20;99880.06;5118584;28;20091;-72
2023/07/11 02:02:27;;;;;;;16.60;7.50;;;;;;;27.60;59.88;99877.47;5118919;28;20476;-72
2023/07/11 02:04:52;;;;;;;18.07;7.10;;;;;;;27.56;60.58;99872.41;5118294;28;20563;-72
2023/07/11 02:07:17;;;;;;;20.27;7.43;;;;;;;27.55;60.73;99873.41;5106707;28;20013;-72
2023/07/11 02:09:43;;;;;;;15.15;7.50;;;;;;;27.53;60.36;99870.84;5116740;28;20387;-72
2023/07/11 02:12:10;;;;;;;20.57;7.90;;;;;;;27.53;60.56;99870.84;5118677;28;20388;-72
2023/07/11 02:14:36;;;;;;;14.55;7.07;;;;;;;27.49;60.63;99862.06;5099509;28;20437;-72
2023/07/11 02:17:02;;;;;;;19.00;7.83;;;;;;;27.44;60.55;99856.19;5118191;28;20049;-72
2023/07/11 02:19:27;;;;;;;17.60;7.80;;;;;;;27.41;60.57;99851.03;5118404;28;20027;-72
2023/07/11 02:21:53;;;;;;;13.97;7.80;;;;;;;27.37;60.77;99861.25;5118264;28;20023;-72
2023/07/11 02:24:18;;;;;;;20.53;8.17;;;;;;;27.36;60.63;99869.47;5118200;28;20020;-72
2023/07/11 02:26:45;;;;;;;20.48;8.18;;;;;;;27.32;60.92;99862.59;5118470;28;20024;-73
2023/07/11 02:29:11;;;;;;;23.25;8.05;;;;;;;27.26;61.35;99866.66;5118199;28;20030;-72
2023/07/11 02:31:37;;;;;;;17.73;8.15;;;;;;;27.23;61.26;99862.38;5118008;28;20077;-73
2023/07/11 02:34:04;;;;;;;19.97;8.50;;;;;;;27.19;61.20;99857.31;5117867;28;20518;-73
2023/07/11 02:36:30;;;;;;;17.05;8.00;;;;;;;27.18;61.37;99848.38;5118158;28;20406;-72
2023/07/11 02:38:56;;;;;;;19.77;8.02;;;;;;;27.17;61.13;99851.19;5118150;28;20028;-72
2023/07/11 02:41:21;;;;;;;16.80;8.00;;;;;;;27.13;61.83;99856.00;5099994;28;20020;-72
2023/07/11 02:43:47;;;;;;;18.50;8.43;;;;;;;27.09;61.84;99849.09;5117756;28;20051;-73
2023/07/11 02:46:14;;;;;;;14.23;8.40;;;;;;;27.03;62.23;99845.06;5117879;28;20419;-73
2023/07/11 02:48:40;;;;;;;17.42;8.95;;;;;;;27.00;62.58;99841.72;5117587;28;20692;-72
2023/07/11 02:51:05;;;;;;;17.63;8.60;;;;;;;26.98;62.65;99838.28;5117932;28;20079;-72
2023/07/11 02:53:31;;;;;;;18.27;8.68;;;;;;;26.97;62.53;99841.97;5099714;28;20479;-73
2023/07/11 02:55:56;;;;;;;18.37;8.43;;;;;;;26.93;62.57;99831.44;5099252;28;20380;-72
2023/07/11 02:58:22;;;;;;;18.07;8.40;;;;;;;26.95;62.98;99831.28;5117296;28;20052;-72
2023/07/11 03:00:50;;;;;;;19.17;8.60;;;;;;;26.94;62.86;99827.75;5099126;28;20459;-72
2023/07/11 03:03:16;;;;;;;19.10;8.80;;;;;;;26.93;63.15;99823.31;5117476;28;20027;-72
2023/07/11 03:05:43;;;;;;;17.87;8.70;;;;;;;26.91;63.27;99830.69;5117450;28;20498;-72
2023/07/11 03:08:09;;;;;;;15.45;8.85;;;;;;;26.86;63.11;99835.56;5117349;28;20103;-72
2023/07/11 03:10:34;;;;;;;18.63;8.87;;;;;;;26.82;63.45;99834.06;5117335;28;20062;-72
2023/07/11 03:12:59;;;;;;;19.70;8.65;;;;;;;26.79;63.55;99829.78;5117424;28;20768;-73
2023/07/11 03:15:25;;;;;;;15.80;9.10;;;;;;;26.78;63.40;99829.91;5117340;28;20108;-72
2023/07/11 03:17:50;;;;;;;17.10;9.37;;;;;;;26.77;63.87;99828.19;5116889;28;20031;-72
2023/07/11 03:20:16;;;;;;;16.10;9.07;;;;;;;26.73;63.79;99829.41;5117094;28;20548;-72
2023/07/11 03:22:47;;;;;;;14.93;8.82;;;;;;;26.72;64.04;99828.53;5098997;28;20019;-73
2023/07/11 03:25:12;;;;;;;15.33;8.63;;;;;;;26.73;63.82;99829.41;5116728;28;20038;-72
2023/07/11 03:27:38;;;;;;;18.77;8.13;;;;;;;26.70;63.38;99835.06;5116959;28;20426;-73
2023/07/11 03:30:04;;;;;;;20.90;9.03;;;;;;;26.68;63.83;99828.94;5098941;28;20325;-72
2023/07/11 03:32:30;;;;;;;17.02;7.95;;;;;;;26.61;63.99;99831.25;5117060;28;20031;-72
2023/07/11 03:34:55;;;;;;;19.00;8.60;;;;;;;26.57;63.75;99836.00;5117022;28;20032;-72
2023/07/11 03:37:20;;;;;;;21.60;9.20;;;;;;;26.49;63.74;99838.47;5117157;28;20165;-72
2023/07/11 03:39:46;;;;;;;17.67;8.60;;;;;;;26.36;64.51;99838.56;5117114;28;20027;-72
2023/07/11 03:42:11;;;;;;;18.43;8.40;;;;;;;26.28;64.58;99836.44;5117119;28;20060;-72
2023/07/11 03:44:37;;;;;;;20.13;8.07;;;;;;;26.26;64.39;99833.00;5117077;28;20026;-72
2023/07/11 03:47:03;;;;;;;19.35;9.48;;;;;;;26.28;64.38;99825.66;5116973;28;20027;-73
2023/07/11 03:49:28;;;;;;;20.97;8.50;;;;;;;26.32;64.73;99826.28;5116875;28;20045;-72
2023/07/11 03:51:54;;;;;;;20.40;9.50;;;;;;;26.29;64.57;99821.13;5117147;28;20095;-72
2023/07/11 03:54:23;;;;;;;17.55;9.07;;;;;;;26.27;64.48;99810.44;5098564;28;20030;-72
2023/07/11 03:56:50;;;;;;;19.50;8.83;;;;;;;26.21;64.24;99813.63;5116266;28;20044;-72
2023/07/11 03:59:15;;;;;;;19.13;8.52;;;;;;;26.16;64.30;99813.97;5117055;28;20399;-72
2023/07/11 04:01:40;;;;;;;18.97;8.53;;;;;;;26.16;64.44;99813.06;5098527;28;20038;-72
2023/07/11 04:04:06;;;;;;;19.50;8.98;;;;;;;26.17;64.77;99809.44;5116862;28;20522;-72
2023/07/11 04:06:31;;;;;;;18.73;8.00;;;;;;;26.13;64.40;99816.00;5116945;28;20012;-73
2023/07/11 04:08:56;;;;;;;24.00;8.50;;;;;;;26.11;64.69;99812.56;5117320;28;20047;-72
2023/07/11 04:11:22;;;;;;;20.60;8.17;;;;;;;26.11;64.84;99813.44;5116886;28;20113;-73
2023/07/11 04:13:47;;;;;;;18.83;8.17;;;;;;;26.09;64.38;99813.53;5117145;28;20032;-73
2023/07/11 04:16:13;;;;;;;21.17;8.50;;;;;;;26.06;64.73;99821.03;5116591;28;20305;-72
2023/07/11 04:18:38;;;;;;;17.27;8.03;;;;;;;26.02;64.74;99815.00;5116656;28;20020;-73
2023/07/11 04:21:03;;;;;;;19.90;8.00;;;;;;;25.97;64.66;99806.41;5116625;28;20099;-72
2023/07/11 04:23:29;;;;;;;16.53;7.77;;;;;;;25.94;64.18;99806.63;5116980;28;20031;-72
2023/07/11 04:25:54;;;;;;;19.42;8.10;;;;;;;25.92;64.66;99813.97;5116818;28;20022;-72
2023/07/11 04:28:20;;;;;;;18.40;8.10;;;;;;;25.89;64.35;99808.81;5116926;28;20031;-72
2023/07/11 04:30:45;;;;;;;18.80;8.03;;;;;;;25.87;64.48;99814.34;5116687;28;20073;-72
2023/07/11 04:33:10;;;;;;;22.87;8.47;;;;;;;25.86;64.51;99815.31;5117084;28;20024;-73
2023/07/11 04:35:36;;;;;;;22.42;8.30;;;;;;;25.85;64.43;99813.59;5116387;28;20023;-72
2023/07/11 04:38:01;;;;;;;17.73;7.43;;;;;;;25.86;64.52;99798.25;5119301;28;20076;-72
2023/07/11 04:40:27;;;;;;;22.97;7.83;;;;;;;25.86;64.46;99806.34;5120526;28;20805;-72
2023/07/11 04:42:52;;;;;;;18.60;8.27;;;;;;;25.88;64.03;99805.25;5120651;28;20030;-72
2023/07/11 04:45:18;;;;;;;16.00;7.60;;;;;;;25.91;64.41;99798.75;5120205;28;20019;-73
2023/07/11 04:47:43;;;;;;;18.37;7.77;;;;;;;25.92;64.46;99798.66;5120431;28;20019;-73
2023/07/11 04:50:09;;;;;;;19.07;7.70;;;;;;;25.94;63.99;99802.09;5120140;28;20587;-73
2023/07/11 04:52:34;;;;;;;20.95;8.35;;;;;;;25.92;63.88;99792.38;5120407;28;20016;-73
2023/07/11 04:55:00;;;;;;;20.27;8.63;;;;;;;25.88;64.41;99796.28;5120039;28;20122;-73
2023/07/11 04:57:25;;;;;;;20.73;8.20;;;;;;;25.85;64.33;99801.94;5120148;28;20047;-73
2023/07/11 04:59:50;;;;;;;18.87;8.40;;;;;;;25.80;64.90;99803.13;5119926;28;20020;-73
2023/07/11 05:02:16;;;;;;;18.20;8.90;;;;;;;25.76;64.86;99798.97;5101661;28;20249;-72
2023/07/11 05:04:41;;;;;;;18.70;8.60;;;;;;;25.75;64.62;99793.66;5119845;28;20434;-72
2023/07/11 05:07:07;;;;;;;18.53;7.53;;;;;;;25.79;64.68;99787.94;5120056;28;20476;-72
2023/07/11 05:09:33;;;;;;;22.17;7.60;;;;;;;25.90;63.94;99778.16;5119758;28;20028;-72
2023/07/11 05:12:00;;;;;;;19.07;6.43;;;;;;;25.90;63.80;99779.03;5119904;28;20273;-72
2023/07/11 05:14:27;;;;;;;22.38;7.32;;;;;;;25.98;63.30;99773.06;5119984;28;20027;-72
2023/07/11 05:16:52;;;;;;;23.45;7.88;;;;;;;25.99;62.81;99777.47;5119581;28;20173;-72
2023/07/11 05:19:18;;;;;;;21.13;7.27;;;;;;;25.94;63.00;99774.28;5100961;28;20053;-72
2023/07/11 05:21:43;;;;;;;18.65;7.00;;;;;;;25.95;62.97;99775.97;5101365;28;20012;-72
2023/07/11 05:24:09;;;;;;;19.03;7.37;;;;;;;25.98;62.47;99770.34;5119447;28;20055;-72
2023/07/11 05:26:36;;;;;;;20.23;7.77;;;;;;;26.01;62.26;99770.13;5119809;28;20047;-72
2023/07/11 05:29:04;;;;;;;19.35;6.82;;;;;;;25.97;62.78;99763.25;5119582;28;20391;-72
2023/07/11 05:31:29;;;;;;;21.55;7.10;;;;;;;25.99;62.15;99768.50;5119365;28;20031;-72
2023/07/11 05:33:55;;;;;;;24.63;7.90;;;;;;;26.00;62.09;99772.91;5119249;28;20034;-72
2023/07/11 05:38:50;;;;;;;19.75;7.97;;;;;;;26.15;61.79;99766.34;5118913;28;20024;-72
2023/07/11 05:41:16;;;;;;;23.33;7.40;;;;;;;26.19;61.90;99756.22;5119240;28;20081;-72
2023/07/11 05:43:42;;;;;;;22.40;7.47;;;;;;;26.17;62.36;99758.19;5119012;28;20045;-72
2023/07/11 05:46:07;;;;;;;23.00;7.88;;;;;;;26.17;61.99;99759.00;5118687;28;20099;-72
2023/07/11 05:48:33;;;;;;;21.57;7.87;;;;;;;26.14;62.05;99759.22;5117683;28;20027;-70
2023/07/11 05:51:05;;;;;;;25.47;7.30;;;;;;;26.11;61.71;99764.00;5119157;28;20027;-70
2023/07/11 05:53:30;;;;;;;22.10;6.68;;;;;;;26.16;61.09;99767.19;5118963;28;20075;-70
2023/07/11 05:55:57;;;;;;;18.70;6.47;;;;;;;26.20;61.35;99764.16;5118946;28;20526;-70
2023/07/11 05:58:23;;;;;;;25.30;6.75;;;;;;;26.30;60.64;99767.00;5118652;28;20058;-70
2023/07/11 06:00:52;;;;;;;17.77;6.25;;;;;;;26.39;60.38;99756.47;5118991;28;20563;-70
2023/07/11 06:03:18;;;;;;;24.98;6.82;;;;;;;26.48;59.88;99767.41;5096183;28;20020;-70
2023/07/11 06:05:43;;;;;;;26.90;7.05;;;;;;;26.53;59.81;99763.50;5114283;28;20030;-70
2023/07/11 06:08:09;;;;;;;24.17;7.03;;;;;;;26.60;59.73;99765.56;5118980;28;20059;-70
2023/07/11 06:10:34;;;;;;;20.93;7.00;;;;;;;26.73;59.04;99765.44;5118579;28;20080;-69
2023/07/11 06:13:00;;;;;;;22.33;6.60;;;;;;;26.81;58.92;99767.53;5117951;28;20112;-70
2023/07/11 06:15:25;;;;;;;17.23;5.67;;;;;;;26.89;58.69;99759.72;5118480;28;20102;-70
2023/07/11 06:17:50;;;;;;;18.20;6.37;;;;;;;27.06;58.37;99754.75;5118108;28;20262;-70
2023/07/11 06:20:16;;;;;;;19.17;6.43;;;;;;;27.18;57.62;99753.78;5116848;28;20031;-71
2023/07/11 06:22:41;;;;;;;16.93;6.30;;;;;;;27.22;57.75;99757.94;5114853;28;20020;-70
2023/07/11 06:25:07;;;;;;;23.10;6.40;;;;;;;27.23;56.97;99748.84;5116027;28;20020;-69
2023/07/11 06:27:33;;;;;;;20.50;5.65;;;;;;;27.29;57.02;99760.13;5115698;28;20023;-70
2023/07/11 06:29:58;;;;;;;17.75;6.38;;;;;;;27.34;56.36;99755.19;5117644;28;20026;-70
2023/07/11 06:32:24;;;;;;;15.57;5.90;;;;;;;27.34;56.22;99755.19;5104037;28;20020;-70
2023/07/11 06:34:49;;;;;;;29.30;5.90;;;;;;;27.35;56.02;99754.19;5109107;28;20032;-71
2023/07/11 06:37:14;;;;;;;19.47;5.43;;;;;;;27.42;56.07;99747.31;5117378;28;20032;-69
2023/07/11 06:39:40;;;;;;;17.33;5.60;;;;;;;27.55;55.83;99741.75;5117742;28;20030;-69
2023/07/11 06:42:06;;;;;;;22.50;5.80;;;;;;;27.62;55.32;99734.84;5117456;28;20108;-69
2023/07/11 06:44:31;;;;;;;21.13;5.65;;;;;;;27.71;55.21;99744.03;5116503;28;20030;-69
2023/07/11 06:46:57;;;;;;;23.93;5.67;;;;;;;27.87;54.80;99740.03;5116240;28;20019;-71
2023/07/11 06:49:22;;;;;;;28.03;5.90;;;;;;;28.05;54.50;99741.13;5117559;28;20027;-71
2023/07/11 06:51:50;;;;;;;23.17;5.60;;;;;;;28.20;53.91;99746.25;5118017;28;20023;-70
2023/07/11 06:54:16;;;;;;;16.30;5.38;;;;;;;28.26;53.68;99743.00;5118010;28;20027;-70
2023/07/11 06:56:42;;;;;;;15.55;5.32;;;;;;;28.34;52.80;99737.78;5117377;28;20061;-70
2023/07/11 06:59:08;;;;;;;20.10;5.50;;;;;;;28.45;52.58;99742.22;5117931;28;20472;-70
2023/07/11 07:01:34;;;;;;;20.08;5.00;;;;;;;28.48;52.27;99747.41;5117551;28;20027;-70
2023/07/11 07:04:00;;;;;;;21.10;4.53;;;;;;;28.51;51.34;99739.00;5117479;28;20032;-70
2023/07/11 07:06:25;;;;;;;20.92;4.82;;;;;;;28.57;51.29;99740.28;5117462;28;20019;-70
2023/07/11 07:08:50;;;;;;;21.40;5.00;;;;;;;28.71;51.28;99733.66;5099384;28;20038;-70
2023/07/11 07:11:16;;;;;;;22.97;4.63;;;;;;;28.87;50.72;99730.47;5117659;28;20024;-70
2023/07/11 07:13:42;;;;;;;19.83;4.97;;;;;;;29.02;50.36;99740.91;5117670;28;20027;-71
2023/07/11 07:16:08;;;;;;;18.70;4.80;;;;;;;29.19;50.11;99733.97;5117252;28;20062;-72
2023/07/11 07:18:34;;;;;;;14.90;4.87;;;;;;;29.30;49.71;99735.66;5117342;28;20277;-72
2023/07/11 07:21:01;;;;;;;19.40;4.90;;;;;;;29.40;49.44;99739.25;5117341;28;20079;-71
2023/07/11 07:23:28;;;;;;;24.33;5.10;;;;;;;29.40;48.92;99733.84;5117423;28;20084;-72
2023/07/11 07:25:58;;;;;;;23.27;4.88;;;;;;;29.42;49.02;99734.59;5117304;28;20157;-71
2023/07/11 07:28:25;;;;;;;23.40;4.53;;;;;;;29.49;48.40;99733.00;5117585;28;20034;-72
2023/07/11 07:30:53;;;;;;;20.10;4.75;;;;;;;29.50;48.27;99748.28;5098955;28;20475;-72
2023/07/11 07:33:20;;;;;;;21.77;4.85;;;;;;;29.57;47.95;99737.72;5117260;28;20384;-72
2023/07/11 07:35:45;;;;;;;19.95;4.63;;;;;;;29.60;48.06;99742.03;5117083;28;20051;-74
2023/07/11 07:38:11;;;;;;;20.03;4.93;;;;;;;29.68;48.20;99734.00;5117408;28;20081;-74
2023/07/11 07:40:37;;;;;;;26.00;5.78;;;;;;;29.79;47.74;99736.59;5116939;28;20100;-74
2023/07/11 07:43:03;;;;;;;24.48;4.93;;;;;;;29.92;47.80;99735.41;5098887;28;20032;-73
2023/07/11 07:45:28;;;;;;;20.50;4.90;;;;;;;30.06;47.45;99735.00;5117007;28;20073;-74
2023/07/11 07:47:54;;;;;;;19.13;4.87;;;;;;;30.20;47.06;99732.81;5117179;28;20133;-74
2023/07/11 07:50:19;;;;;;;26.13;5.33;;;;;;;30.32;47.36;99725.34;5116830;28;20059;-73
2023/07/11 07:52:46;;;;;;;17.63;4.80;;;;;;;30.41;46.95;99719.03;5117299;28;20265;-73
2023/07/11 07:55:11;;;;;;;27.95;5.93;;;;;;;30.51;47.18;99732.59;5117014;28;20478;-73
2023/07/11 07:57:37;;;;;;;26.97;5.30;;;;;;;30.61;47.33;99732.56;5098665;28;20039;-73
2023/07/11 08:00:04;;;;;;;22.23;5.75;;;;;;;30.68;46.95;99724.66;5098692;28;20043;-73
2023/07/11 08:02:31;;;;;;;27.17;5.67;;;;;;;30.79;46.57;99732.63;5117429;28;20364;-73
2023/07/11 08:04:57;;;;;;;26.20;5.60;;;;;;;30.93;46.42;99723.94;5116804;28;20361;-73
2023/07/11 08:07:24;;;;;;;26.65;5.18;;;;;;;31.05;46.30;99715.59;5117072;28;20045;-74
2023/07/11 08:09:49;;;;;;;26.92;6.05;;;;;;;31.05;45.54;99705.56;5116632;28;20031;-74
2023/07/11 08:12:15;;;;;;;28.63;6.40;;;;;;;31.00;45.97;99712.50;5118390;28;20113;-74
2023/07/11 08:14:41;;;;;;;31.77;6.57;;;;;;;31.03;45.99;99710.31;5120759;28;20098;-74
2023/07/11 08:17:08;;;;;;;30.23;6.23;;;;;;;31.09;45.62;99706.13;5112697;28;20038;-72
2023/07/11 08:19:34;;;;;;;30.02;7.20;;;;;;;31.01;45.46;99719.63;5120627;28;20019;-72
2023/07/11 08:21:59;;;;;;;31.33;6.05;;;;;;;31.00;46.28;99717.94;5102411;28;20062;-72
2023/07/11 08:24:25;;;;;;;28.00;6.50;;;;;;;31.02;45.99;99721.34;5120798;28;20033;-73
2023/07/11 08:26:51;;;;;;;34.70;6.53;;;;;;;31.14;46.37;99709.22;5120965;28;20107;-72
2023/07/11 08:29:16;;;;;;;31.47;7.00;;;;;;;31.22;45.55;99701.19;5120825;28;20144;-72
2023/07/11 08:31:42;;;;;;;30.70;6.50;;;;;;;31.15;46.21;99720.97;5120675;28;20084;-73
2023/07/11 08:34:07;;;;;;;27.83;6.35;;;;;;;30.97;47.04;99716.38;5102393;28;20034;-73
2023/07/11 08:36:33;;;;;;;28.87;6.50;;;;;;;31.04;46.96;99700.28;5102110;28;20043;-73
2023/07/11 08:38:58;;;;;;;30.63;6.00;;;;;;;31.01;46.65;99698.72;5120472;28;20066;-72
2023/07/11 08:41:30;;;;;;;28.33;7.17;;;;;;;31.08;46.57;99690.81;5120592;28;20031;-72
2023/07/11 08:44:03;;;;;;;34.08;6.85;;;;;;;31.11;46.93;99698.66;5120182;28;20023;-72
2023/07/11 08:46:37;;;;;;;29.47;6.00;;;;;;;31.07;46.66;99700.81;5120712;28;20024;-71
2023/07/11 08:49:05;;;;;;;30.80;6.78;;;;;;;31.08;45.93;99696.25;5107223;28;20480;-71
2023/07/11 08:51:43;;;;;;;24.52;5.72;;;;;;;31.04;46.39;99694.84;5120200;28;20027;-74
2023/07/11 08:54:24;;;;;;;31.08;6.38;;;;;;;31.03;46.32;99691.28;5120363;28;20043;-74
2023/07/11 08:56:50;;;;;;;32.22;6.25;;;;;;;31.12;46.46;99686.78;5119912;28;20059;-74
2023/07/11 08:59:54;;;;;;;35.53;6.10;;;;;;;31.18;46.95;99691.59;5120309;28;20027;-74
2023/07/11 09:02:34;;;;;;;37.22;7.00;;;;;;;31.48;46.48;99689.53;5090696;28;20084;-74
2023/07/11 09:05:03;;;;;;;31.83;6.72;;;;;;;31.65;46.25;99689.66;5119852;28;20020;-74
2023/07/11 09:07:36;;;;;;;37.88;6.57;;;;;;;31.66;45.80;99680.47;5120172;28;20153;-74
2023/07/11 09:10:11;;;;;;;28.00;6.23;;;;;;;31.82;46.14;99678.94;5120058;28;20392;-75
2023/07/11 09:13:01;;;;;;;28.63;6.53;;;;;;;31.96;45.38;99680.22;5101551;28;20031;-74
2023/07/11 09:15:45;;;;;;;29.90;6.43;;;;;;;32.03;46.18;99670.38;5101398;28;20031;-74
2023/07/11 09:18:38;;;;;;;31.77;6.50;;;;;;;32.15;45.59;99654.63;5116139;28;20507;-75
2023/07/11 09:21:12;;;;;;;37.25;7.45;;;;;;;32.30;45.24;99663.91;5119580;28;20031;-74
2023/07/11 09:23:50;;;;;;;31.90;6.87;;;;;;;32.38;45.65;99673.16;5118535;28;20031;-74
2023/07/11 09:26:28;;;;;;;28.13;6.35;;;;;;;32.44;45.66;99661.63;5106897;28;20027;-73
2023/07/11 09:29:00;;;;;;;25.85;6.60;;;;;;;32.57;45.09;99656.56;5119573;28;20032;-75
2023/07/11 09:31:27;;;;;;;33.30;7.00;;;;;;;32.63;45.15;99660.50;5119647;28;20479;-73
2023/07/11 09:33:58;;;;;;;22.17;6.00;;;;;;;32.73;44.89;99676.72;5119066;28;20031;-74
2023/07/11 09:36:30;;;;;;;29.40;6.50;;;;;;;32.85;45.30;99669.94;5119446;28;20024;-75
2023/07/11 09:39:35;;;;;;;27.25;6.50;;;;;;;32.97;45.16;99673.22;5119360;28;20066;-74
2023/07/11 09:42:04;;;;;;;27.90;5.68;;;;;;;33.23;44.87;99672.25;5116260;28;20028;-75
2023/07/11 09:44:30;;;;;;;38.53;7.13;;;;;;;33.36;44.31;99671.75;5100862;28;20107;-75
2023/07/11 09:46:56;;;;;;;34.13;6.67;;;;;;;33.27;44.56;99676.34;5119153;28;20051;-75
2023/07/11 09:49:30;;;;;;;36.17;7.63;;;;;;;32.82;45.15;99673.00;5119009;28;20073;-77
2023/07/11 09:52:00;;;;;;;33.08;7.28;;;;;;;32.87;45.16;99661.59;5119122;28;20101;-75
2023/07/11 09:54:28;;;;;;;26.60;7.00;;;;;;;32.92;45.79;99662.84;5119053;28;20145;-72
2023/07/11 09:56:55;;;;;;;36.78;7.53;;;;;;;33.18;45.40;99675.50;5118724;28;20052;-71
2023/07/11 09:59:21;;;;;;;29.88;7.38;;;;;;;33.30;45.49;99669.69;5119126;28;20027;-74
2023/07/11 10:01:53;;;;;;;36.80;8.02;;;;;;;33.33;45.67;99661.16;5100558;28;20020;-77
2023/07/11 10:04:23;;;;;;;29.38;7.00;;;;;;;33.39;45.60;99648.72;5118645;28;20058;-75
2023/07/11 10:06:56;;;;;;;26.27;6.83;;;;;;;33.53;45.19;99649.94;5100615;28;20026;-76
2023/07/11 10:09:21;;;;;;;31.30;6.60;;;;;;;33.66;45.23;99650.28;5118616;28;20030;-75
2023/07/11 10:11:52;;;;;;;40.70;7.70;;;;;;;33.71;45.44;99663.41;5118681;28;20102;-75
2023/07/11 10:14:19;;;;;;;35.42;7.22;;;;;;;33.77;45.16;99668.19;5100247;28;20436;-75
2023/07/11 10:16:46;;;;;;;36.92;7.60;;;;;;;33.82;44.60;99664.94;5099942;28;20080;-75
2023/07/11 10:19:18;;;;;;;34.80;7.63;;;;;;;33.96;44.82;99667.00;5118011;28;20454;-79
2023/07/11 10:21:48;;;;;;;33.38;7.40;;;;;;;34.10;44.20;99654.50;5118451;28;20433;-80
2023/07/11 10:24:25;;;;;;;33.03;7.80;;;;;;;34.22;44.42;99661.28;5118364;28;20433;-75
2023/07/11 10:26:58;;;;;;;35.25;7.68;;;;;;;34.15;44.60;99656.72;5118715;28;20023;-78
2023/07/11 10:29:27;;;;;;;30.00;7.63;;;;;;;34.23;44.81;99664.88;5118145;28;20024;-76
2023/07/11 10:32:00;;;;;;;38.85;8.20;;;;;;;34.41;44.84;99664.63;5099876;28;20031;-76
2023/07/11 10:34:30;;;;;;;33.08;7.35;;;;;;;34.53;44.55;99656.09;5099391;28;20034;-76
2023/07/11 10:37:04;;;;;;;29.43;7.47;;;;;;;34.42;44.32;99654.56;5118357;28;20157;-76
2023/07/11 10:39:42;;;;;;;31.55;8.00;;;;;;;34.54;43.98;99644.13;5118269;28;20472;-76
2023/07/11 10:42:21;;;;;;;30.85;8.30;;;;;;;34.61;43.61;99642.38;5118094;28;20054;-76
2023/07/11 10:44:48;;;;;;;38.33;8.20;;;;;;;34.67;43.83;99651.75;5111816;28;20030;-73
2023/07/11 10:47:27;;;;;;;36.17;8.15;;;;;;;34.59;44.42;99650.72;5099624;28;20031;-74
2023/07/11 10:49:54;;;;;;;31.93;8.83;;;;;;;34.66;44.67;99655.50;5117899;28;20076;-75
2023/07/11 10:52:25;;;;;;;35.67;8.55;;;;;;;34.69;44.14;99647.78;5117950;28;20079;-74
2023/07/11 10:55:15;;;;;;;33.20;8.23;;;;;;;34.70;44.25;99651.38;5117703;28;20032;-75
2023/07/11 10:57:46;;;;;;;34.35;9.40;;;;;;;34.79;44.29;99642.09;5099226;28;20053;-75
2023/07/11 11:00:20;;;;;;;35.65;8.82;;;;;;;34.83;43.36;99635.22;5104396;28;20107;-75
2023/07/11 11:02:52;;;;;;;32.87;8.13;;;;;;;34.71;44.14;99642.97;5117932;28;20054;-75
2023/07/11 11:05:28;;;;;;;32.45;8.30;;;;;;;34.79;44.02;99644.81;5117661;28;20023;-75
2023/07/11 11:08:06;;;;;;;29.27;7.63;;;;;;;34.91;44.20;99632.44;5117735;28;20023;-76
2023/07/11 11:10:42;;;;;;;27.88;7.47;;;;;;;35.08;43.85;99631.50;5117516;28;20019;-76
2023/07/11 11:13:11;;;;;;;27.73;8.52;;;;;;;35.21;43.18;99643.53;5099469;28;20027;-77
2023/07/11 11:15:59;;;;;;;34.50;7.83;;;;;;;35.19;43.43;99633.81;5117284;28;20094;-76
2023/07/11 11:18:24;;;;;;;25.83;7.65;;;;;;;35.18;43.78;99641.19;5117161;28;20030;-76
2023/07/11 11:20:56;;;;;;;37.27;8.10;;;;;;;35.09;43.81;99644.16;5098974;28;20031;-76
2023/07/11 11:23:40;;;;;;;35.17;8.73;;;;;;;35.07;43.78;99630.66;5117484;28;20086;-74
2023/07/11 11:26:20;;;;;;;32.38;8.18;;;;;;;35.03;43.72;99619.22;5098718;28;20031;-75
2023/07/11 11:28:51;;;;;;;33.55;8.50;;;;;;;35.08;43.17;99624.13;5099498;28;20027;-75
2023/07/11 11:31:23;;;;;;;35.20;8.30;;;;;;;35.16;43.77;99636.91;5117236;28;20034;-76